Estación Meteorológica Peña el Pijo (Robertgarden) [ 11/19/19 11:36:51 CET ]

Fecha Hora Presion(HPa) Temp (°C) Humedad % Rocio (°C) Viento ( m/s) Direccion Lluvia 1Hora(mm) Lluvia 24H(mm) LLuvia Total(mm)
2019-Mar-23 01:01:39 1014.400 4.9 73 0.4         184.40
2019-Mar-23 02:02:33 1014.100 4.8 75 0.7         184.40
2019-Mar-23 03:01:54 1014.200 5.1 77 1.4         184.40
2019-Mar-23 04:02:09 1013.600 5.5 79 2.1         184.40
2019-Mar-23 05:02:01 1013.500 5.7 79 2.3         184.40
2019-Mar-23 06:01:46 1013.700 5.6 79 2.2         184.40
2019-Mar-23 07:01:53 1013.400 5.6 78 2.0         184.40
2019-Mar-23 08:01:40 1013.800 5.1 78 1.5         184.40
2019-Mar-23 09:01:42 1013.600 6.2 78 2.6         184.40
2019-Mar-23 10:01:41 1013.900 8.4 64 2.0         184.40
2019-Mar-23 11:01:37 1013.800 8.1 59 0.5         184.40
2019-Mar-23 12:01:26 1013.300 9.9 56 1.5         184.40
2019-Mar-23 13:01:35 1013.400 9.6 61 2.4         184.40
2019-Mar-23 14:01:52 1012.900 8.9 67 3.1         184.40
2019-Mar-23 15:01:42 1012.800 8.1 74 3.8         184.40
2019-Mar-23 16:01:55 1012.700 7.4 79 4.0         184.40
2019-Mar-23 17:01:56 1012.200 7.5 81 4.5         184.40
2019-Mar-23 18:01:20 1011.900 8.3 80 5.1         184.40
2019-Mar-23 19:01:32 1012.100 8.3 79 4.9         184.40
2019-Mar-23 20:01:39 1012.200 7.9 80 4.7         184.40
2019-Mar-23 21:01:43 1012.700 7.9 80 4.7         184.40
2019-Mar-23 22:01:41 1012.900 7.8 78 4.2         184.40
2019-Mar-23 23:01:47 1012.600 7.1 79 3.7         184.40

Temperatura Máxima:    Temperatura Mínima:
Presión Máxima:1014.400 Hpa    Presión Mínima:1011.900 Hpa


Volver